Grand Ledge, Michigan
Current Conditions -  °F | °C
As of 8:53 AM on Saturday 22 Nov 2014 (Local Time) from KLAN Reporting Station
Haze Haze  
Wind Chill: 26°   Ceiling: 800
Heat Index: 35°   Visibility: 5mi
Dew Point: 32°   Wind: 15mph
Humidity: 89%   Direction: 210°SSW
Pressure: 30.04"   Gusts: NA
Location:  42.75°N, 84.74°W
Report Text: KLAN 221353Z 21013KT 5SM BR OVC008 02/00 A3004 RMK AO2 RAE50 SLP185 P0005 T00170000 $
Loading
Personal Weather Stations






























Interactive Weather Map New forecast layout! Learn more

10-Day Weather Forecast

Advertisements
Track Severe Weather on mobile